Time;durP1;ratioP1;P1;durP2;ratioP2;P2;SDS_P1;SDS_P2;PMS_P1;PMS_P2;Temp;Humidity;BMP_temperature;BMP_pressure;BME280_temperature;BME280_humidity;BME280_pressure;Samples;Min_cycle;Max_cycle;Signal;HPM_P1;HPM_P2
2022/11/20 00:00:20;;;;;;;;;;;6.10;99.90;;;;;;1973838;73;20136;-75
2022/11/20 00:02:46;;;;;;;;;;;6.20;99.90;;;;;;1973914;73;20392;-75
2022/11/20 00:05:13;;;;;;;;;;;6.10;99.90;;;;;;1974129;73;20141;-75
2022/11/20 00:07:40;;;;;;;;;;;6.00;99.90;;;;;;1974628;73;20122;-76
2022/11/20 00:10:06;;;;;;;;;;;6.00;99.90;;;;;;1976146;73;20100;-75
2022/11/20 00:12:33;;;;;;;;;;;6.00;99.90;;;;;;1977553;73;20108;-75
2022/11/20 00:15:00;;;;;;;;;;;6.00;99.90;;;;;;1973958;73;20322;-75
2022/11/20 00:17:27;;;;;;;;;;;5.90;99.90;;;;;;1974005;73;20176;-75
2022/11/20 00:19:53;;;;;;;;;;;5.90;99.90;;;;;;1973881;73;20114;-75
2022/11/20 00:22:20;;;;;;;;;;;5.90;99.90;;;;;;1973828;73;20141;-74
2022/11/20 00:24:47;;;;;;;;;;;5.90;99.90;;;;;;1973775;73;20114;-74
2022/11/20 00:27:13;;;;;;;;;;;5.90;99.90;;;;;;1973859;73;20110;-74
2022/11/20 00:29:40;;;;;;;;;;;5.80;99.90;;;;;;1973830;73;20110;-75
2022/11/20 00:32:07;;;;;;;;;;;5.80;99.90;;;;;;1973811;73;20153;-74
2022/11/20 00:34:33;;;;;;;;;;;5.90;99.90;;;;;;1973847;73;20103;-74
2022/11/20 00:37:00;;;;;;;;;;;5.90;99.90;;;;;;1973848;73;20164;-76
2022/11/20 00:39:27;;;;;;;;;;;5.90;99.90;;;;;;1973804;73;20199;-74
2022/11/20 00:41:53;;;;;;;;;;;5.90;99.90;;;;;;1973847;73;20152;-74
2022/11/20 00:44:20;;;;;;;;;;;5.90;99.90;;;;;;1973984;73;20098;-74
2022/11/20 00:46:47;;;;;;;;;;;5.90;99.90;;;;;;1973794;73;20110;-73
2022/11/20 00:49:14;;;;;;;;;;;6.00;99.90;;;;;;1973779;73;20095;-74
2022/11/20 00:51:40;;;;;;;;;;;6.00;99.90;;;;;;1973799;73;20098;-73
2022/11/20 00:54:07;;;;;;;;;;;6.00;99.90;;;;;;1973794;73;20098;-73
2022/11/20 00:56:34;;;;;;;;;;;6.10;99.90;;;;;;1973815;73;20138;-74
2022/11/20 00:59:01;;;;;;;;;;;6.00;99.90;;;;;;1973917;73;20325;-73
2022/11/20 01:01:29;;;;;;;;;;;6.10;99.90;;;;;;1973953;73;20114;-75
2022/11/20 01:03:56;;;;;;;;;;;6.20;99.90;;;;;;1973832;73;20215;-75
2022/11/20 01:06:24;;;;;;;;;;;6.20;99.90;;;;;;1973874;73;20122;-74
2022/11/20 01:08:51;;;;;;;;;;;6.20;99.90;;;;;;1973801;73;20148;-74
2022/11/20 01:11:19;;;;;;;;;;;6.20;99.90;;;;;;1973930;73;20099;-75
2022/11/20 01:13:46;;;;;;;;;;;6.10;99.90;;;;;;1973927;73;20191;-74
2022/11/20 01:16:13;;;;;;;;;;;6.20;99.90;;;;;;1973714;73;20230;-74
2022/11/20 01:18:41;;;;;;;;;;;6.20;99.90;;;;;;1973726;73;20106;-74
2022/11/20 01:21:09;;;;;;;;;;;6.20;99.90;;;;;;1973813;73;20321;-74
2022/11/20 01:23:36;;;;;;;;;;;6.10;99.90;;;;;;1972486;73;20169;-76
2022/11/20 01:26:07;;;;;;;;;;;6.10;99.90;;;;;;1973846;73;20148;-74
2022/11/20 01:28:34;;;;;;;;;;;6.20;99.90;;;;;;1974506;73;20160;-76
2022/11/20 01:31:00;;;;;;;;;;;6.10;99.90;;;;;;1974058;73;20195;-76
2022/11/20 01:33:27;;;;;;;;;;;6.20;99.90;;;;;;1974076;73;20373;-75
2022/11/20 01:35:54;;;;;;;;;;;6.20;99.90;;;;;;1973873;73;20156;-75
2022/11/20 01:38:22;;;;;;;;;;;6.30;99.90;;;;;;1973717;73;20137;-75
2022/11/20 01:40:55;;;;;;;;;;;6.20;99.90;;;;;;1973796;73;20098;-75
2022/11/20 01:43:22;;;;;;;;;;;6.20;99.90;;;;;;1973828;73;20110;-75
2022/11/20 01:45:56;;;;;;;;;;;6.20;99.90;;;;;;1973892;73;20162;-75
2022/11/20 01:48:23;;;;;;;;;;;6.30;99.90;;;;;;1973778;73;20173;-73
2022/11/20 01:50:50;;;;;;;;;;;6.20;99.90;;;;;;1973747;73;20165;-73
2022/11/20 01:53:17;;;;;;;;;;;6.30;99.90;;;;;;1973766;73;20140;-74
2022/11/20 01:55:48;;;;;;;;;;;6.20;99.90;;;;;;1973808;73;20110;-73
2022/11/20 01:58:15;;;;;;;;;;;6.30;99.90;;;;;;1973817;73;20102;-73
2022/11/20 02:00:42;;;;;;;;;;;6.30;99.90;;;;;;1973767;73;20099;-73
2022/11/20 02:03:13;;;;;;;;;;;6.30;99.90;;;;;;1973807;73;20144;-73
2022/11/20 02:05:42;;;;;;;;;;;6.20;99.90;;;;;;1973796;73;20106;-73
2022/11/20 02:08:09;;;;;;;;;;;6.10;99.90;;;;;;1973963;73;20110;-74
2022/11/20 02:10:35;;;;;;;;;;;6.00;99.90;;;;;;1973743;73;20261;-74
2022/11/20 02:15:47;;;;;;;;;;;5.90;99.90;;;;;;1950942;73;20111;-74
2022/11/20 02:18:14;;;;;;;;;;;5.90;99.90;;;;;;1973686;73;20122;-73
2022/11/20 02:20:42;;;;;;;;;;;5.90;99.90;;;;;;1973747;73;20110;-75
2022/11/20 02:23:11;;;;;;;;;;;5.80;99.90;;;;;;1972064;73;20145;-74
2022/11/20 02:25:37;;;;;;;;;;;5.80;99.90;;;;;;1973765;73;20383;-72
2022/11/20 02:28:04;;;;;;;;;;;5.80;99.90;;;;;;1973858;73;20118;-73
2022/11/20 02:30:31;;;;;;;;;;;5.80;99.90;;;;;;1973866;73;20318;-74
2022/11/20 02:32:58;;;;;;;;;;;5.80;99.90;;;;;;1973908;73;20196;-74
2022/11/20 02:35:26;;;;;;;;;;;5.80;99.90;;;;;;1973911;73;20136;-73
2022/11/20 02:37:57;;;;;;;;;;;5.90;99.90;;;;;;1973830;73;20371;-75
2022/11/20 02:40:23;;;;;;;;;;;6.00;99.90;;;;;;1973845;73;20110;-75
2022/11/20 02:42:55;;;;;;;;;;;6.00;99.90;;;;;;1973998;73;20110;-74
2022/11/20 02:45:22;;;;;;;;;;;6.00;99.90;;;;;;1972549;73;20144;-74
2022/11/20 02:47:49;;;;;;;;;;;5.90;99.90;;;;;;1973814;73;20133;-73
2022/11/20 02:50:16;;;;;;;;;;;5.90;99.90;;;;;;1973980;73;20319;-74
2022/11/20 02:52:42;;;;;;;;;;;5.80;99.90;;;;;;1973821;73;20141;-74
2022/11/20 02:55:09;;;;;;;;;;;5.80;99.90;;;;;;1973839;73;20165;-73
2022/11/20 02:57:36;;;;;;;;;;;5.70;99.90;;;;;;1973930;73;20161;-73
2022/11/20 03:00:03;;;;;;;;;;;5.70;99.90;;;;;;1973819;73;20159;-74
2022/11/20 03:02:30;;;;;;;;;;;5.70;99.90;;;;;;1973897;73;20152;-75
2022/11/20 03:04:57;;;;;;;;;;;5.70;99.90;;;;;;1973918;73;20144;-74
2022/11/20 03:07:24;;;;;;;;;;;5.70;99.90;;;;;;1973823;73;20420;-75
2022/11/20 03:09:50;;;;;;;;;;;5.70;99.90;;;;;;1973872;73;20174;-74
2022/11/20 03:12:17;;;;;;;;;;;5.70;99.90;;;;;;1973888;73;20329;-74
2022/11/20 03:14:44;;;;;;;;;;;5.80;99.90;;;;;;1973857;73;20185;-74
2022/11/20 03:17:11;;;;;;;;;;;5.80;99.90;;;;;;1973837;73;20337;-73
2022/11/20 03:19:37;;;;;;;;;;;5.80;99.90;;;;;;1973897;73;20176;-73
2022/11/20 03:22:04;;;;;;;;;;;5.80;99.90;;;;;;1973876;73;20216;-73
2022/11/20 03:24:31;;;;;;;;;;;5.90;99.90;;;;;;1973866;73;20110;-75
2022/11/20 03:26:57;;;;;;;;;;;5.90;99.90;;;;;;1973841;73;20160;-75
2022/11/20 03:29:24;;;;;;;;;;;5.90;99.90;;;;;;1973854;73;20140;-74
2022/11/20 03:31:51;;;;;;;;;;;5.90;99.90;;;;;;1973836;73;20117;-74
2022/11/20 03:34:17;;;;;;;;;;;5.90;99.90;;;;;;1973818;73;20118;-74
2022/11/20 03:36:44;;;;;;;;;;;5.90;99.90;;;;;;1973814;73;20110;-74
2022/11/20 03:39:11;;;;;;;;;;;5.90;99.90;;;;;;1973747;73;20149;-74
2022/11/20 03:41:38;;;;;;;;;;;6.00;99.90;;;;;;1973986;73;20110;-74
2022/11/20 03:44:07;;;;;;;;;;;6.10;99.90;;;;;;1973959;73;20165;-74
2022/11/20 03:46:34;;;;;;;;;;;6.10;99.90;;;;;;1973885;73;20126;-75
2022/11/20 03:49:00;;;;;;;;;;;6.10;99.90;;;;;;1973984;73;20194;-74
2022/11/20 03:51:29;;;;;;;;;;;6.00;99.90;;;;;;1973938;73;20164;-74
2022/11/20 03:53:56;;;;;;;;;;;6.10;99.90;;;;;;1972020;72;20122;-75
2022/11/20 03:56:24;;;;;;;;;;;6.10;99.90;;;;;;1973883;73;20106;-74
2022/11/20 03:58:50;;;;;;;;;;;6.00;99.90;;;;;;1973894;73;20150;-76
2022/11/20 04:01:18;;;;;;;;;;;6.00;99.90;;;;;;1973904;73;20294;-75
2022/11/20 04:03:45;;;;;;;;;;;6.00;99.90;;;;;;1973933;73;20322;-73
2022/11/20 04:06:13;;;;;;;;;;;6.00;99.90;;;;;;1973836;73;20114;-74
2022/11/20 04:08:40;;;;;;;;;;;6.10;99.90;;;;;;1973018;73;20106;-74
2022/11/20 04:11:16;;;;;;;;;;;6.10;99.90;;;;;;1973780;73;20146;-73
2022/11/20 04:13:43;;;;;;;;;;;6.10;99.90;;;;;;1973806;73;20103;-73
2022/11/20 04:16:10;;;;;;;;;;;6.00;99.90;;;;;;1947097;73;20172;-72
2022/11/20 04:18:37;;;;;;;;;;;6.10;99.90;;;;;;1973881;73;20162;-74
2022/11/20 04:21:04;;;;;;;;;;;6.00;99.90;;;;;;1973768;73;20371;-73
2022/11/20 04:23:30;;;;;;;;;;;6.10;99.90;;;;;;1973776;73;20110;-75
2022/11/20 04:26:07;;;;;;;;;;;6.10;99.90;;;;;;1973779;73;20152;-74
2022/11/20 04:28:33;;;;;;;;;;;6.10;99.90;;;;;;1973932;73;20144;-74
2022/11/20 04:31:10;;;;;;;;;;;6.10;99.90;;;;;;1973937;73;20340;-74
2022/11/20 04:33:37;;;;;;;;;;;6.10;99.90;;;;;;1973963;73;20157;-76
2022/11/20 04:36:04;;;;;;;;;;;6.00;99.90;;;;;;1973789;73;20117;-75
2022/11/20 04:38:31;;;;;;;;;;;6.20;99.90;;;;;;1973725;73;20103;-73
2022/11/20 04:41:01;;;;;;;;;;;6.10;99.90;;;;;;1973894;73;20157;-74
2022/11/20 04:43:28;;;;;;;;;;;6.20;99.90;;;;;;1973905;73;20110;-74
2022/11/20 04:45:54;;;;;;;;;;;6.30;99.90;;;;;;1973884;73;20144;-74
2022/11/20 04:48:21;;;;;;;;;;;6.20;99.90;;;;;;1973700;73;20157;-74
2022/11/20 04:50:48;;;;;;;;;;;6.10;99.90;;;;;;1973774;73;20114;-74
2022/11/20 04:53:15;;;;;;;;;;;6.00;99.90;;;;;;1973825;73;20184;-74
2022/11/20 04:55:41;;;;;;;;;;;6.00;99.90;;;;;;1973681;73;20106;-73
2022/11/20 04:58:08;;;;;;;;;;;6.00;99.90;;;;;;1973708;73;20110;-74
2022/11/20 05:00:35;;;;;;;;;;;6.10;99.90;;;;;;1973825;73;20172;-75
2022/11/20 05:03:01;;;;;;;;;;;6.00;99.90;;;;;;1973823;73;20110;-73
2022/11/20 05:05:28;;;;;;;;;;;6.10;99.90;;;;;;1973714;73;20164;-73
2022/11/20 05:07:58;;;;;;;;;;;6.10;99.90;;;;;;1973677;73;20152;-73
2022/11/20 05:10:25;;;;;;;;;;;6.00;99.90;;;;;;1973740;73;20152;-73
2022/11/20 05:12:52;;;;;;;;;;;5.90;99.90;;;;;;1973794;73;20140;-73
2022/11/20 05:15:18;;;;;;;;;;;5.90;99.90;;;;;;1973711;73;20337;-73
2022/11/20 05:17:49;;;;;;;;;;;5.90;99.90;;;;;;1973779;73;20168;-74
2022/11/20 05:20:15;;;;;;;;;;;6.00;99.90;;;;;;1973856;73;20321;-74
2022/11/20 05:22:42;;;;;;;;;;;6.10;99.90;;;;;;1973678;73;20106;-74
2022/11/20 05:25:09;;;;;;;;;;;6.10;99.90;;;;;;1973843;73;20202;-75
2022/11/20 05:27:36;;;;;;;;;;;6.10;99.90;;;;;;1973879;73;20118;-74
2022/11/20 05:30:03;;;;;;;;;;;6.10;99.90;;;;;;1973822;73;20106;-75
2022/11/20 05:32:30;;;;;;;;;;;6.00;99.90;;;;;;1973832;73;20161;-74
2022/11/20 05:34:56;;;;;;;;;;;6.10;99.90;;;;;;1973801;73;20410;-74
2022/11/20 05:37:23;;;;;;;;;;;6.10;99.90;;;;;;1973695;73;20114;-74
2022/11/20 05:39:50;;;;;;;;;;;6.20;99.90;;;;;;1973769;73;20321;-75
2022/11/20 05:42:32;;;;;;;;;;;6.20;99.90;;;;;;1973766;73;20154;-75
2022/11/20 05:45:02;;;;;;;;;;;6.20;99.90;;;;;;1973700;73;20342;-75
2022/11/20 05:47:31;;;;;;;;;;;6.30;99.90;;;;;;1973684;73;20111;-74
2022/11/20 05:49:57;;;;;;;;;;;6.30;99.90;;;;;;1973221;73;20115;-74
2022/11/20 05:52:24;;;;;;;;;;;6.30;99.90;;;;;;1973759;73;20145;-75
2022/11/20 05:54:51;;;;;;;;;;;6.30;99.90;;;;;;1973796;73;20110;-74
2022/11/20 05:57:17;;;;;;;;;;;6.40;99.90;;;;;;1973780;73;20114;-75
2022/11/20 05:59:44;;;;;;;;;;;6.40;99.90;;;;;;1973818;73;20141;-74
2022/11/20 06:02:11;;;;;;;;;;;6.40;99.90;;;;;;1973674;73;20144;-75
2022/11/20 06:04:38;;;;;;;;;;;6.40;99.90;;;;;;1973947;73;20305;-75
2022/11/20 06:07:07;;;;;;;;;;;6.40;99.90;;;;;;1973734;73;20149;-74
2022/11/20 06:09:34;;;;;;;;;;;6.40;99.90;;;;;;1973893;73;20103;-75
2022/11/20 06:12:01;;;;;;;;;;;6.50;99.90;;;;;;1973844;73;20098;-74
2022/11/20 06:14:27;;;;;;;;;;;6.40;99.90;;;;;;1973953;73;20154;-75
2022/11/20 06:16:54;;;;;;;;;;;6.40;99.90;;;;;;1973865;73;20140;-75
2022/11/20 06:19:21;;;;;;;;;;;6.40;99.90;;;;;;1973890;73;20103;-75
2022/11/20 06:21:49;;;;;;;;;;;6.40;99.90;;;;;;1973903;73;20112;-74
2022/11/20 06:24:16;;;;;;;;;;;6.40;99.90;;;;;;1973935;73;20103;-74
2022/11/20 06:26:42;;;;;;;;;;;6.40;99.90;;;;;;1973904;73;20415;-73
2022/11/20 06:29:09;;;;;;;;;;;6.50;99.90;;;;;;1973983;73;20144;-75
2022/11/20 06:31:37;;;;;;;;;;;6.50;99.90;;;;;;1973758;73;20355;-74
2022/11/20 06:34:05;;;;;;;;;;;6.50;99.90;;;;;;1973849;73;20345;-74
2022/11/20 06:36:32;;;;;;;;;;;6.50;99.90;;;;;;1973815;73;20149;-74
2022/11/20 06:38:59;;;;;;;;;;;6.40;99.90;;;;;;1973841;73;20302;-74
2022/11/20 06:41:27;;;;;;;;;;;6.50;99.90;;;;;;1973830;73;20367;-73
2022/11/20 06:43:54;;;;;;;;;;;6.40;99.90;;;;;;1973819;73;20372;-74
2022/11/20 06:46:21;;;;;;;;;;;6.40;99.90;;;;;;1974057;73;20137;-73
2022/11/20 06:48:48;;;;;;;;;;;6.40;99.90;;;;;;1973833;73;20396;-74
2022/11/20 06:51:14;;;;;;;;;;;6.40;99.90;;;;;;1973930;73;20126;-74
2022/11/20 06:53:41;;;;;;;;;;;6.40;99.90;;;;;;1973841;73;20106;-74
2022/11/20 06:56:08;;;;;;;;;;;6.40;99.90;;;;;;1973893;73;20125;-73
2022/11/20 06:58:35;;;;;;;;;;;6.40;99.90;;;;;;1973781;73;20354;-73
2022/11/20 07:01:02;;;;;;;;;;;6.40;99.90;;;;;;1973890;73;20113;-74
2022/11/20 07:03:29;;;;;;;;;;;6.40;99.90;;;;;;1973917;73;20121;-74
2022/11/20 07:05:57;;;;;;;;;;;6.50;99.90;;;;;;1973587;73;20094;-73
2022/11/20 07:08:24;;;;;;;;;;;6.60;99.90;;;;;;1973758;73;20353;-72
2022/11/20 07:10:50;;;;;;;;;;;6.60;99.90;;;;;;1973862;73;20106;-74
2022/11/20 07:13:17;;;;;;;;;;;6.70;99.90;;;;;;1973731;73;20161;-73
2022/11/20 07:15:44;;;;;;;;;;;6.60;99.90;;;;;;1973745;73;20155;-73
2022/11/20 07:18:11;;;;;;;;;;;6.60;99.90;;;;;;1973748;73;20171;-73
2022/11/20 07:20:37;;;;;;;;;;;6.70;99.90;;;;;;1973754;73;20169;-73
2022/11/20 07:23:04;;;;;;;;;;;6.80;99.90;;;;;;1973846;73;20326;-74
2022/11/20 07:25:31;;;;;;;;;;;6.70;99.90;;;;;;1973863;73;20098;-75
2022/11/20 07:27:58;;;;;;;;;;;6.70;99.90;;;;;;1973804;73;20419;-73
2022/11/20 07:30:25;;;;;;;;;;;6.70;99.90;;;;;;1973868;73;20169;-74
2022/11/20 07:32:52;;;;;;;;;;;6.90;99.90;;;;;;1973868;73;20353;-74
2022/11/20 07:35:19;;;;;;;;;;;7.00;99.90;;;;;;1973788;73;20168;-75
2022/11/20 07:37:46;;;;;;;;;;;7.10;99.90;;;;;;1973814;73;20102;-74
2022/11/20 07:40:13;;;;;;;;;;;7.10;99.90;;;;;;1973845;73;20122;-74
2022/11/20 07:42:41;;;;;;;;;;;7.20;99.90;;;;;;1973823;73;20136;-74
2022/11/20 07:45:09;;;;;;;;;;;7.20;99.90;;;;;;1972813;73;20208;-73
2022/11/20 07:47:36;;;;;;;;;;;7.00;99.90;;;;;;1973838;73;20334;-74
2022/11/20 07:50:03;;;;;;;;;;;7.00;99.90;;;;;;1973721;73;20160;-73
2022/11/20 07:52:30;;;;;;;;;;;7.10;99.90;;;;;;1973836;73;20152;-73
2022/11/20 07:54:56;;;;;;;;;;;7.10;99.90;;;;;;1973770;73;20321;-73
2022/11/20 07:57:23;;;;;;;;;;;7.30;99.90;;;;;;1973742;73;20140;-73
2022/11/20 07:59:50;;;;;;;;;;;7.10;99.90;;;;;;1973872;73;20160;-75
2022/11/20 08:02:17;;;;;;;;;;;7.00;99.90;;;;;;1973912;73;20392;-75
2022/11/20 08:04:43;;;;;;;;;;;7.10;99.90;;;;;;1973907;73;20189;-73
2022/11/20 08:07:10;;;;;;;;;;;7.10;99.90;;;;;;1973798;73;20325;-74
2022/11/20 08:09:37;;;;;;;;;;;7.00;99.90;;;;;;1973914;73;20196;-74
2022/11/20 08:14:48;;;;;;;;;;;7.00;99.90;;;;;;1973856;73;20153;-74
2022/11/20 08:17:14;;;;;;;;;;;7.00;99.90;;;;;;1973849;73;20144;-72
2022/11/20 08:19:41;;;;;;;;;;;7.00;99.90;;;;;;1973807;73;20141;-70
2022/11/20 08:22:08;;;;;;;;;;;7.00;99.90;;;;;;1973777;73;20125;-69
2022/11/20 08:24:35;;;;;;;;;;;7.10;99.90;;;;;;1973908;73;20106;-72
2022/11/20 08:27:01;;;;;;;;;;;7.10;99.90;;;;;;1973902;73;20099;-72
2022/11/20 08:29:28;;;;;;;;;;;7.10;99.90;;;;;;1973854;73;20125;-71
2022/11/20 08:31:55;;;;;;;;;;;7.00;99.90;;;;;;1973747;73;20102;-71
2022/11/20 08:34:21;;;;;;;;;;;7.10;99.90;;;;;;1973725;73;20165;-72
2022/11/20 08:36:48;;;;;;;;;;;7.10;99.90;;;;;;1973862;73;20099;-72
2022/11/20 08:39:15;;;;;;;;;;;7.20;99.90;;;;;;1973935;73;20099;-71
2022/11/20 08:41:41;;;;;;;;;;;7.20;99.90;;;;;;1973807;73;20102;-72
2022/11/20 08:44:08;;;;;;;;;;;7.20;99.90;;;;;;1973754;73;20172;-71
2022/11/20 08:46:39;;;;;;;;;;;7.30;99.90;;;;;;1973813;73;20338;-73
2022/11/20 08:49:06;;;;;;;;;;;7.40;99.90;;;;;;1973726;73;20118;-70
2022/11/20 08:51:33;;;;;;;;;;;7.40;99.90;;;;;;1973750;73;20342;-69
2022/11/20 08:53:59;;;;;;;;;;;7.50;99.90;;;;;;1973860;73;20110;-71
2022/11/20 08:56:26;;;;;;;;;;;7.60;99.90;;;;;;1973704;73;20145;-70
2022/11/20 08:58:53;;;;;;;;;;;7.60;99.90;;;;;;1973725;73;20110;-68
2022/11/20 09:01:20;;;;;;;;;;;7.60;99.90;;;;;;1973832;73;20114;-69
2022/11/20 09:03:46;;;;;;;;;;;7.60;99.90;;;;;;1973863;73;20343;-75
2022/11/20 09:06:13;;;;;;;;;;;7.60;99.90;;;;;;1973824;73;20099;-74
2022/11/20 09:08:40;;;;;;;;;;;7.70;99.90;;;;;;1973836;73;20159;-77
2022/11/20 09:11:07;;;;;;;;;;;7.80;99.90;;;;;;1973796;73;20409;-75
2022/11/20 09:13:34;;;;;;;;;;;7.80;99.90;;;;;;1973808;73;20329;-77
2022/11/20 09:16:02;;;;;;;;;;;7.90;99.90;;;;;;1973871;73;20111;-77
2022/11/20 09:18:31;;;;;;;;;;;8.00;99.90;;;;;;1973874;73;20102;-74
2022/11/20 09:21:01;;;;;;;;;;;8.10;99.90;;;;;;1973777;73;20267;-75
2022/11/20 09:23:28;;;;;;;;;;;7.90;99.90;;;;;;1974045;73;20150;-76
2022/11/20 09:25:59;;;;;;;;;;;7.90;99.90;;;;;;1974264;73;20392;-74
2022/11/20 09:28:23;;;;;;;;;;;8.00;99.90;;;;;;1973342;73;20159;-74
2022/11/20 09:30:50;;;;;;;;;;;8.00;99.90;;;;;;1973812;73;20154;-73
2022/11/20 09:33:17;;;;;;;;;;;8.00;99.90;;;;;;1973798;73;20214;-72
2022/11/20 09:35:44;;;;;;;;;;;7.90;99.90;;;;;;1973768;73;20333;-75
2022/11/20 09:38:10;;;;;;;;;;;7.90;99.90;;;;;;1973752;73;20330;-73
2022/11/20 09:40:39;;;;;;;;;;;7.90;99.90;;;;;;1973796;73;20153;-74
2022/11/20 09:43:24;;;;;;;;;;;7.90;99.90;;;;;;1973846;73;20118;-75
2022/11/20 09:45:52;;;;;;;;;;;7.90;99.90;;;;;;1973897;73;20351;-79
2022/11/20 09:48:24;;;;;;;;;;;7.90;99.90;;;;;;1973379;73;20134;-74
2022/11/20 09:51:10;;;;;;;;;;;7.90;99.90;;;;;;1973591;73;20114;-80
2022/11/20 09:53:55;;;;;;;;;;;7.90;99.90;;;;;;1973375;73;20161;-76
2022/11/20 09:56:22;;;;;;;;;;;8.00;99.90;;;;;;1973882;73;20200;-79
2022/11/20 09:58:50;;;;;;;;;;;8.00;99.90;;;;;;1973812;73;20094;-78
2022/11/20 10:01:22;;;;;;;;;;;8.00;99.90;;;;;;1972483;73;20161;-80
2022/11/20 10:03:56;;;;;;;;;;;8.00;99.90;;;;;;1972275;73;20197;-79
2022/11/20 10:06:24;;;;;;;;;;;8.10;99.90;;;;;;1973897;73;20141;-79
2022/11/20 10:08:55;;;;;;;;;;;8.10;99.90;;;;;;1971534;73;20156;-77
2022/11/20 10:11:24;;;;;;;;;;;8.10;99.90;;;;;;1950733;73;20210;-78
2022/11/20 10:14:10;;;;;;;;;;;8.20;99.90;;;;;;1973444;73;20329;-79
2022/11/20 10:16:38;;;;;;;;;;;8.20;99.90;;;;;;1973785;73;20365;-79
2022/11/20 10:19:10;;;;;;;;;;;8.30;99.90;;;;;;1973953;73;20114;-79
2022/11/20 10:21:38;;;;;;;;;;;8.30;99.90;;;;;;1973531;73;20126;-78
2022/11/20 10:24:10;;;;;;;;;;;8.20;99.90;;;;;;1974097;73;20193;-78
2022/11/20 10:26:55;;;;;;;;;;;8.10;99.90;;;;;;1974190;73;20174;-79
2022/11/20 10:29:22;;;;;;;;;;;8.10;99.90;;;;;;1974195;73;20102;-79
2022/11/20 10:31:51;;;;;;;;;;;8.10;99.90;;;;;;1974259;73;20345;-79
2022/11/20 10:34:27;;;;;;;;;;;8.20;99.90;;;;;;1972477;72;20169;-79
2022/11/20 10:36:58;;;;;;;;;;;8.10;99.90;;;;;;1973886;73;20106;-80
2022/11/20 10:39:27;;;;;;;;;;;8.10;99.90;;;;;;1973860;73;20333;-78
2022/11/20 10:41:53;;;;;;;;;;;8.00;99.90;;;;;;1973334;73;20118;-79
2022/11/20 10:45:00;;;;;;;;;;;8.10;99.90;;;;;;1973861;73;20165;-79
2022/11/20 10:46:50;;;;;;;;;;;8.00;99.90;;;;;;1969494;73;20189;-80
2022/11/20 10:49:18;;;;;;;;;;;8.00;99.90;;;;;;1973891;73;20223;-79
2022/11/20 10:51:46;;;;;;;;;;;8.00;99.90;;;;;;1973891;73;20161;-79
2022/11/20 10:54:21;;;;;;;;;;;7.90;99.90;;;;;;1974028;73;20095;-80
2022/11/20 10:56:53;;;;;;;;;;;7.90;99.90;;;;;;1973997;73;20156;-79
2022/11/20 10:59:40;;;;;;;;;;;7.90;99.90;;;;;;1972347;73;20122;-79
2022/11/20 11:02:22;;;;;;;;;;;7.80;99.90;;;;;;1973185;73;20156;-78
2022/11/20 11:04:52;;;;;;;;;;;7.70;99.90;;;;;;1974034;73;20110;-80
2022/11/20 11:07:24;;;;;;;;;;;7.80;99.90;;;;;;1974035;73;20110;-78
2022/11/20 11:09:55;;;;;;;;;;;7.80;99.90;;;;;;1974071;73;20103;-79
2022/11/20 11:12:22;;;;;;;;;;;7.80;99.90;;;;;;1973878;73;20110;-79
2022/11/20 11:14:50;;;;;;;;;;;7.80;99.90;;;;;;1973834;73;20137;-79
2022/11/20 11:17:18;;;;;;;;;;;7.80;99.90;;;;;;1973898;73;20187;-79
2022/11/20 11:19:45;;;;;;;;;;;7.80;99.90;;;;;;1973988;73;20110;-79
2022/11/20 11:22:13;;;;;;;;;;;7.80;99.90;;;;;;1974064;73;20126;-79
2022/11/20 11:24:42;;;;;;;;;;;7.90;99.90;;;;;;1973714;73;20107;-79
2022/11/20 11:27:12;;;;;;;;;;;7.90;99.90;;;;;;1973836;73;20302;-80
2022/11/20 11:29:39;;;;;;;;;;;7.90;99.90;;;;;;1974001;73;20149;-79
2022/11/20 11:32:06;;;;;;;;;;;7.90;99.90;;;;;;1974124;73;20120;-79
2022/11/20 11:34:33;;;;;;;;;;;7.90;99.90;;;;;;1973957;73;20191;-80
2022/11/20 11:37:01;;;;;;;;;;;8.00;99.90;;;;;;1974121;73;20110;-80
2022/11/20 11:39:28;;;;;;;;;;;8.00;99.90;;;;;;1973995;73;20372;-79
2022/11/20 11:41:54;;;;;;;;;;;8.10;99.90;;;;;;1974037;73;20114;-79
2022/11/20 11:47:08;;;;;;;;;;;8.40;99.90;;;;;;1974321;73;20183;-81
2022/11/20 11:49:35;;;;;;;;;;;8.50;99.90;;;;;;1972810;73;20102;-79
2022/11/20 11:52:09;;;;;;;;;;;8.60;99.90;;;;;;1974145;73;20173;-79
2022/11/20 11:54:38;;;;;;;;;;;9.00;99.90;;;;;;1974041;73;20140;-80
2022/11/20 11:57:12;;;;;;;;;;;9.20;99.90;;;;;;1974009;73;20177;-78
2022/11/20 11:59:41;;;;;;;;;;;9.80;99.90;;;;;;1928124;73;20184;-79
2022/11/20 12:02:09;;;;;;;;;;;9.90;99.90;;;;;;1973572;73;20356;-79
2022/11/20 12:04:46;;;;;;;;;;;9.40;99.90;;;;;;1972924;73;20118;-79
2022/11/20 12:07:18;;;;;;;;;;;9.60;99.90;;;;;;1974063;73;20114;-78
2022/11/20 12:09:50;;;;;;;;;;;9.90;99.90;;;;;;1974073;73;20122;-80
2022/11/20 12:12:16;;;;;;;;;;;10.20;99.90;;;;;;1973502;73;20188;-80
2022/11/20 12:14:43;;;;;;;;;;;10.50;99.90;;;;;;1973838;73;20360;-80
2022/11/20 12:17:11;;;;;;;;;;;10.00;99.90;;;;;;1947642;73;20344;-80
2022/11/20 12:19:38;;;;;;;;;;;10.00;99.90;;;;;;1974237;73;20410;-80
2022/11/20 12:22:12;;;;;;;;;;;9.50;99.90;;;;;;1974469;73;20110;-80
2022/11/20 12:24:40;;;;;;;;;;;9.60;99.90;;;;;;1973757;73;20126;-78
2022/11/20 12:27:11;;;;;;;;;;;9.80;99.90;;;;;;1974323;73;20122;-80
2022/11/20 12:29:39;;;;;;;;;;;9.80;99.90;;;;;;1973454;73;20196;-78
2022/11/20 12:32:11;;;;;;;;;;;9.90;99.90;;;;;;1973798;73;20382;-78
2022/11/20 12:34:45;;;;;;;;;;;10.70;99.90;;;;;;1974194;73;20153;-79
2022/11/20 12:37:13;;;;;;;;;;;11.50;99.90;;;;;;1974190;73;20149;-79
2022/11/20 12:39:41;;;;;;;;;;;11.00;99.90;;;;;;1974105;73;20113;-79
2022/11/20 12:45:12;;;;;;;;;;;11.10;99.90;;;;;;1974199;73;20150;-77
2022/11/20 12:47:57;;;;;;;;;;;11.20;99.90;;;;;;1974266;73;20106;-78
2022/11/20 12:50:25;;;;;;;;;;;11.00;99.90;;;;;;1974240;73;20134;-79
2022/11/20 12:52:55;;;;;;;;;;;10.90;99.90;;;;;;1973648;73;20135;-79
2022/11/20 12:55:36;;;;;;;;;;;10.60;99.90;;;;;;1974097;73;20145;-76
2022/11/20 12:58:07;;;;;;;;;;;10.60;99.90;;;;;;1974099;73;20175;-78
2022/11/20 13:00:34;;;;;;;;;;;10.50;99.90;;;;;;1974068;73;20118;-78
2022/11/20 13:03:07;;;;;;;;;;;10.40;99.90;;;;;;1974248;73;20154;-78
2022/11/20 13:05:52;;;;;;;;;;;10.40;99.90;;;;;;1974137;72;20135;-79
2022/11/20 13:08:28;;;;;;;;;;;10.20;99.90;;;;;;1974271;73;20385;-78
2022/11/20 13:10:56;;;;;;;;;;;10.30;99.90;;;;;;1974247;73;20110;-79
2022/11/20 13:13:28;;;;;;;;;;;10.60;99.90;;;;;;1974224;73;20379;-78
2022/11/20 13:15:56;;;;;;;;;;;10.40;99.90;;;;;;1974218;73;20168;-78
2022/11/20 13:18:23;;;;;;;;;;;10.60;99.90;;;;;;1974212;73;20156;-78
2022/11/20 13:20:50;;;;;;;;;;;11.10;99.90;;;;;;1974113;73;20106;-78
2022/11/20 13:23:25;;;;;;;;;;;11.00;99.90;;;;;;1974095;73;20121;-77
2022/11/20 13:25:52;;;;;;;;;;;10.50;99.90;;;;;;1973905;73;20114;-77
2022/11/20 13:28:21;;;;;;;;;;;10.60;99.90;;;;;;1947543;73;20153;-77
2022/11/20 13:30:51;;;;;;;;;;;10.20;99.90;;;;;;1974080;73;20141;-77
2022/11/20 13:33:31;;;;;;;;;;;10.10;99.90;;;;;;1974027;73;20157;-76
2022/11/20 13:35:59;;;;;;;;;;;10.30;99.90;;;;;;1974073;73;20153;-76
2022/11/20 13:38:26;;;;;;;;;;;10.70;99.90;;;;;;1974273;73;20114;-77
2022/11/20 13:41:27;;;;;;;;;;;11.00;99.90;;;;;;1974208;73;20135;-77
2022/11/20 13:43:28;;;;;;;;;;;10.90;99.90;;;;;;1969819;73;20143;-77
2022/11/20 13:46:02;;;;;;;;;;;10.40;99.90;;;;;;1974180;73;20114;-78
2022/11/20 13:48:36;;;;;;;;;;;10.40;99.90;;;;;;1973848;73;20169;-77
2022/11/20 13:51:05;;;;;;;;;;;11.30;99.90;;;;;;1958146;73;20175;-75
2022/11/20 13:53:45;;;;;;;;;;;11.90;99.90;;;;;;1973956;73;20109;-76
2022/11/20 13:56:13;;;;;;;;;;;12.20;99.90;;;;;;1973457;73;20322;-77
2022/11/20 13:58:51;;;;;;;;;;;11.70;99.90;;;;;;1962112;73;20118;-77
2022/11/20 14:01:19;;;;;;;;;;;11.10;99.90;;;;;;1973729;72;20329;-78
2022/11/20 14:03:47;;;;;;;;;;;10.60;99.90;;;;;;1972348;73;20144;-77
2022/11/20 14:06:31;;;;;;;;;;;10.00;99.90;;;;;;1973976;73;20147;-76
2022/11/20 14:08:58;;;;;;;;;;;10.00;99.90;;;;;;1972636;73;20282;-77
2022/11/20 14:11:28;;;;;;;;;;;10.00;99.90;;;;;;1974066;73;20126;-78
2022/11/20 14:13:55;;;;;;;;;;;10.10;99.90;;;;;;1973925;73;20144;-78
2022/11/20 14:16:22;;;;;;;;;;;10.20;99.90;;;;;;1974062;73;20122;-79
2022/11/20 14:18:51;;;;;;;;;;;10.40;99.90;;;;;;1973926;73;20161;-77
2022/11/20 14:21:27;;;;;;;;;;;10.70;99.90;;;;;;1973879;73;20131;-77
2022/11/20 14:24:04;;;;;;;;;;;10.20;99.90;;;;;;1973957;73;20122;-76
2022/11/20 14:26:31;;;;;;;;;;;9.70;99.90;;;;;;1972227;73;20118;-75
2022/11/20 14:28:58;;;;;;;;;;;9.50;99.90;;;;;;1974159;73;20223;-76
2022/11/20 14:31:25;;;;;;;;;;;9.40;99.90;;;;;;1974101;73;20114;-77
2022/11/20 14:33:55;;;;;;;;;;;9.40;99.90;;;;;;1973944;73;20160;-77
2022/11/20 14:36:23;;;;;;;;;;;9.30;99.90;;;;;;1974035;73;20142;-78
2022/11/20 14:38:50;;;;;;;;;;;9.00;99.90;;;;;;1974147;73;20099;-77
2022/11/20 14:41:18;;;;;;;;;;;9.00;99.90;;;;;;1974056;73;20121;-77
2022/11/20 14:43:50;;;;;;;;;;;8.90;99.90;;;;;;1973744;73;20140;-78
2022/11/20 14:46:16;;;;;;;;;;;8.90;99.90;;;;;;1974095;73;20129;-77